sensor_id;sensor_type;location;lat;lon;timestamp;P1;durP1;ratioP1;P2;durP2;ratioP2
9461;SDS011;4769;42.660;23.262;2023-07-08T00:00:14;16.60;;;14.88;;
9461;SDS011;4769;42.660;23.262;2023-07-08T00:02:43;18.00;;;16.25;;
9461;SDS011;4769;42.660;23.262;2023-07-08T00:05:09;19.08;;;17.08;;
9461;SDS011;4769;42.660;23.262;2023-07-08T00:07:36;17.50;;;15.82;;
9461;SDS011;4769;42.660;23.262;2023-07-08T00:10:04;17.92;;;16.33;;
9461;SDS011;4769;42.660;23.262;2023-07-08T00:12:38;18.77;;;17.08;;
9461;SDS011;4769;42.660;23.262;2023-07-08T00:15:04;17.55;;;16.05;;
9461;SDS011;4769;42.660;23.262;2023-07-08T00:17:33;19.05;;;17.15;;
9461;SDS011;4769;42.660;23.262;2023-07-08T00:19:59;18.90;;;17.20;;
9461;SDS011;4769;42.660;23.262;2023-07-08T00:22:25;18.52;;;16.52;;
9461;SDS011;4769;42.660;23.262;2023-07-08T00:24:50;18.95;;;16.98;;
9461;SDS011;4769;42.660;23.262;2023-07-08T00:27:16;19.25;;;17.20;;
9461;SDS011;4769;42.660;23.262;2023-07-08T00:29:42;19.27;;;17.30;;
9461;SDS011;4769;42.660;23.262;2023-07-08T00:32:10;20.67;;;18.55;;
9461;SDS011;4769;42.660;23.262;2023-07-08T00:34:40;18.48;;;16.63;;
9461;SDS011;4769;42.660;23.262;2023-07-08T00:37:07;17.98;;;16.35;;
9461;SDS011;4769;42.660;23.262;2023-07-08T00:39:35;18.55;;;16.75;;
9461;SDS011;4769;42.660;23.262;2023-07-08T00:42:01;18.48;;;16.73;;
9461;SDS011;4769;42.660;23.262;2023-07-08T00:44:32;18.30;;;16.55;;
9461;SDS011;4769;42.660;23.262;2023-07-08T00:47:07;19.67;;;16.63;;
9461;SDS011;4769;42.660;23.262;2023-07-08T00:49:36;17.13;;;15.63;;
9461;SDS011;4769;42.660;23.262;2023-07-08T00:52:18;17.85;;;16.15;;
9461;SDS011;4769;42.660;23.262;2023-07-08T00:54:45;17.63;;;16.02;;
9461;SDS011;4769;42.660;23.262;2023-07-08T00:57:13;17.52;;;15.93;;
9461;SDS011;4769;42.660;23.262;2023-07-08T00:59:42;17.75;;;16.05;;
9461;SDS011;4769;42.660;23.262;2023-07-08T01:02:11;17.92;;;16.00;;
9461;SDS011;4769;42.660;23.262;2023-07-08T01:04:50;18.27;;;16.52;;
9461;SDS011;4769;42.660;23.262;2023-07-08T01:07:19;18.42;;;16.02;;
9461;SDS011;4769;42.660;23.262;2023-07-08T01:09:48;17.85;;;16.10;;
9461;SDS011;4769;42.660;23.262;2023-07-08T01:12:20;17.55;;;15.85;;
9461;SDS011;4769;42.660;23.262;2023-07-08T01:14:49;17.42;;;15.73;;
9461;SDS011;4769;42.660;23.262;2023-07-08T01:17:18;17.45;;;15.75;;
9461;SDS011;4769;42.660;23.262;2023-07-08T01:19:46;17.02;;;15.38;;
9461;SDS011;4769;42.660;23.262;2023-07-08T01:22:15;17.70;;;16.00;;
9461;SDS011;4769;42.660;23.262;2023-07-08T01:24:41;16.60;;;15.07;;
9461;SDS011;4769;42.660;23.262;2023-07-08T01:27:11;17.40;;;16.00;;
9461;SDS011;4769;42.660;23.262;2023-07-08T01:29:39;18.42;;;16.52;;
9461;SDS011;4769;42.660;23.262;2023-07-08T01:32:08;17.02;;;15.32;;
9461;SDS011;4769;42.660;23.262;2023-07-08T01:34:37;17.90;;;16.30;;
9461;SDS011;4769;42.660;23.262;2023-07-08T01:37:03;16.60;;;15.20;;
9461;SDS011;4769;42.660;23.262;2023-07-08T01:39:33;17.95;;;16.20;;
9461;SDS011;4769;42.660;23.262;2023-07-08T01:41:59;16.70;;;15.13;;
9461;SDS011;4769;42.660;23.262;2023-07-08T01:44:27;16.67;;;15.05;;
9461;SDS011;4769;42.660;23.262;2023-07-08T01:46:54;17.00;;;15.60;;
9461;SDS011;4769;42.660;23.262;2023-07-08T01:49:22;15.80;;;14.23;;
9461;SDS011;4769;42.660;23.262;2023-07-08T01:51:49;15.80;;;14.02;;
9461;SDS011;4769;42.660;23.262;2023-07-08T01:54:15;15.48;;;13.95;;
9461;SDS011;4769;42.660;23.262;2023-07-08T01:56:44;15.45;;;14.07;;
9461;SDS011;4769;42.660;23.262;2023-07-08T01:59:09;14.88;;;13.23;;
9461;SDS011;4769;42.660;23.262;2023-07-08T02:01:35;16.08;;;14.38;;
9461;SDS011;4769;42.660;23.262;2023-07-08T02:04:01;16.10;;;14.50;;
9461;SDS011;4769;42.660;23.262;2023-07-08T02:06:26;15.48;;;14.07;;
9461;SDS011;4769;42.660;23.262;2023-07-08T02:08:52;19.52;;;14.73;;
9461;SDS011;4769;42.660;23.262;2023-07-08T02:11:18;16.40;;;14.88;;
9461;SDS011;4769;42.660;23.262;2023-07-08T02:13:46;16.38;;;14.90;;
9461;SDS011;4769;42.660;23.262;2023-07-08T02:16:12;15.82;;;13.90;;
9461;SDS011;4769;42.660;23.262;2023-07-08T02:18:38;15.07;;;13.57;;
9461;SDS011;4769;42.660;23.262;2023-07-08T02:21:04;14.93;;;13.48;;
9461;SDS011;4769;42.660;23.262;2023-07-08T02:23:29;15.93;;;14.02;;
9461;SDS011;4769;42.660;23.262;2023-07-08T02:25:55;15.48;;;14.05;;
9461;SDS011;4769;42.660;23.262;2023-07-08T02:28:21;15.20;;;13.80;;
9461;SDS011;4769;42.660;23.262;2023-07-08T02:30:49;16.55;;;15.05;;
9461;SDS011;4769;42.660;23.262;2023-07-08T02:33:15;15.93;;;14.52;;
9461;SDS011;4769;42.660;23.262;2023-07-08T02:35:43;16.15;;;14.77;;
9461;SDS011;4769;42.660;23.262;2023-07-08T02:38:09;17.10;;;15.40;;
9461;SDS011;4769;42.660;23.262;2023-07-08T02:40:35;15.48;;;14.15;;
9461;SDS011;4769;42.660;23.262;2023-07-08T02:43:00;15.50;;;14.23;;
9461;SDS011;4769;42.660;23.262;2023-07-08T02:45:26;16.23;;;14.63;;
9461;SDS011;4769;42.660;23.262;2023-07-08T02:47:54;14.93;;;13.52;;
9461;SDS011;4769;42.660;23.262;2023-07-08T02:50:20;16.58;;;14.15;;
9461;SDS011;4769;42.660;23.262;2023-07-08T02:52:46;16.02;;;14.43;;
9461;SDS011;4769;42.660;23.262;2023-07-08T02:55:11;15.57;;;14.15;;
9461;SDS011;4769;42.660;23.262;2023-07-08T02:57:37;14.45;;;13.10;;
9461;SDS011;4769;42.660;23.262;2023-07-08T03:00:03;15.02;;;13.63;;
9461;SDS011;4769;42.660;23.262;2023-07-08T03:02:30;14.63;;;13.20;;
9461;SDS011;4769;42.660;23.262;2023-07-08T03:04:58;14.45;;;13.05;;
9461;SDS011;4769;42.660;23.262;2023-07-08T03:07:24;14.52;;;13.27;;
9461;SDS011;4769;42.660;23.262;2023-07-08T03:09:49;14.57;;;13.27;;
9461;SDS011;4769;42.660;23.262;2023-07-08T03:12:15;13.55;;;12.30;;
9461;SDS011;4769;42.660;23.262;2023-07-08T03:14:41;13.85;;;12.35;;
9461;SDS011;4769;42.660;23.262;2023-07-08T03:17:07;12.90;;;11.32;;
9461;SDS011;4769;42.660;23.262;2023-07-08T03:19:32;12.40;;;11.20;;
9461;SDS011;4769;42.660;23.262;2023-07-08T03:22:01;12.45;;;11.45;;
9461;SDS011;4769;42.660;23.262;2023-07-08T03:24:27;13.00;;;11.57;;
9461;SDS011;4769;42.660;23.262;2023-07-08T03:26:52;12.15;;;11.00;;
9461;SDS011;4769;42.660;23.262;2023-07-08T03:29:18;13.73;;;10.80;;
9461;SDS011;4769;42.660;23.262;2023-07-08T03:31:44;11.50;;;10.32;;
9461;SDS011;4769;42.660;23.262;2023-07-08T03:34:11;11.77;;;10.68;;
9461;SDS011;4769;42.660;23.262;2023-07-08T03:36:40;11.75;;;10.65;;
9461;SDS011;4769;42.660;23.262;2023-07-08T03:39:11;11.20;;;10.20;;
9461;SDS011;4769;42.660;23.262;2023-07-08T03:41:36;12.15;;;11.18;;
9461;SDS011;4769;42.660;23.262;2023-07-08T03:44:02;10.43;;;9.43;;
9461;SDS011;4769;42.660;23.262;2023-07-08T03:46:28;11.15;;;10.07;;
9461;SDS011;4769;42.660;23.262;2023-07-08T03:48:54;10.02;;;9.20;;
9461;SDS011;4769;42.660;23.262;2023-07-08T03:51:21;11.05;;;9.80;;
9461;SDS011;4769;42.660;23.262;2023-07-08T03:53:49;10.40;;;9.43;;
9461;SDS011;4769;42.660;23.262;2023-07-08T03:56:17;10.85;;;9.77;;
9461;SDS011;4769;42.660;23.262;2023-07-08T03:58:43;11.38;;;9.63;;
9461;SDS011;4769;42.660;23.262;2023-07-08T04:01:09;10.10;;;9.07;;
9461;SDS011;4769;42.660;23.262;2023-07-08T04:03:39;10.20;;;8.95;;
9461;SDS011;4769;42.660;23.262;2023-07-08T04:06:05;9.38;;;8.57;;
9461;SDS011;4769;42.660;23.262;2023-07-08T04:08:30;9.27;;;8.38;;
9461;SDS011;4769;42.660;23.262;2023-07-08T04:10:56;8.75;;;8.05;;
9461;SDS011;4769;42.660;23.262;2023-07-08T04:13:24;9.85;;;8.95;;
9461;SDS011;4769;42.660;23.262;2023-07-08T04:15:50;9.73;;;8.90;;
9461;SDS011;4769;42.660;23.262;2023-07-08T04:18:20;9.65;;;8.65;;
9461;SDS011;4769;42.660;23.262;2023-07-08T04:20:45;9.88;;;8.65;;
9461;SDS011;4769;42.660;23.262;2023-07-08T04:23:11;10.18;;;9.38;;
9461;SDS011;4769;42.660;23.262;2023-07-08T04:25:37;9.95;;;8.95;;
9461;SDS011;4769;42.660;23.262;2023-07-08T04:28:02;9.90;;;8.90;;
9461;SDS011;4769;42.660;23.262;2023-07-08T04:30:31;9.50;;;8.73;;
9461;SDS011;4769;42.660;23.262;2023-07-08T04:32:56;10.25;;;9.02;;
9461;SDS011;4769;42.660;23.262;2023-07-08T04:35:22;9.48;;;8.57;;
9461;SDS011;4769;42.660;23.262;2023-07-08T04:37:48;10.00;;;9.10;;
9461;SDS011;4769;42.660;23.262;2023-07-08T04:40:17;11.43;;;9.75;;
9461;SDS011;4769;42.660;23.262;2023-07-08T04:42:44;9.65;;;8.85;;
9461;SDS011;4769;42.660;23.262;2023-07-08T04:45:10;10.60;;;9.65;;
9461;SDS011;4769;42.660;23.262;2023-07-08T04:47:38;10.48;;;9.57;;
9461;SDS011;4769;42.660;23.262;2023-07-08T04:50:04;12.68;;;9.52;;
9461;SDS011;4769;42.660;23.262;2023-07-08T04:52:31;9.80;;;9.00;;
9461;SDS011;4769;42.660;23.262;2023-07-08T04:54:56;9.73;;;8.93;;
9461;SDS011;4769;42.660;23.262;2023-07-08T04:57:22;10.18;;;9.27;;
9461;SDS011;4769;42.660;23.262;2023-07-08T04:59:48;9.70;;;8.80;;
9461;SDS011;4769;42.660;23.262;2023-07-08T05:02:13;10.63;;;9.60;;
9461;SDS011;4769;42.660;23.262;2023-07-08T05:04:42;9.63;;;8.73;;
9461;SDS011;4769;42.660;23.262;2023-07-08T05:07:07;9.68;;;8.77;;
9461;SDS011;4769;42.660;23.262;2023-07-08T05:09:33;9.65;;;8.70;;
9461;SDS011;4769;42.660;23.262;2023-07-08T05:11:59;9.15;;;8.30;;
9461;SDS011;4769;42.660;23.262;2023-07-08T05:14:24;9.07;;;8.27;;
9461;SDS011;4769;42.660;23.262;2023-07-08T05:16:50;9.02;;;8.23;;
9461;SDS011;4769;42.660;23.262;2023-07-08T05:19:16;9.95;;;8.25;;
9461;SDS011;4769;42.660;23.262;2023-07-08T05:21:44;8.15;;;7.45;;
9461;SDS011;4769;42.660;23.262;2023-07-08T05:24:10;9.35;;;8.23;;
9461;SDS011;4769;42.660;23.262;2023-07-08T05:26:35;9.27;;;8.38;;
9461;SDS011;4769;42.660;23.262;2023-07-08T05:29:01;7.72;;;7.13;;
9461;SDS011;4769;42.660;23.262;2023-07-08T05:31:27;8.13;;;7.43;;
9461;SDS011;4769;42.660;23.262;2023-07-08T05:33:53;8.27;;;7.32;;
9461;SDS011;4769;42.660;23.262;2023-07-08T05:36:19;8.57;;;7.72;;
9461;SDS011;4769;42.660;23.262;2023-07-08T05:38:48;8.32;;;7.40;;
9461;SDS011;4769;42.660;23.262;2023-07-08T05:41:13;8.43;;;7.05;;
9461;SDS011;4769;42.660;23.262;2023-07-08T05:43:39;8.93;;;7.28;;
9461;SDS011;4769;42.660;23.262;2023-07-08T05:46:05;8.13;;;7.35;;
9461;SDS011;4769;42.660;23.262;2023-07-08T05:48:31;7.70;;;6.88;;
9461;SDS011;4769;42.660;23.262;2023-07-08T05:50:56;8.13;;;7.35;;
9461;SDS011;4769;42.660;23.262;2023-07-08T05:53:22;8.98;;;8.07;;
9461;SDS011;4769;42.660;23.262;2023-07-08T05:55:50;8.15;;;7.45;;
9461;SDS011;4769;42.660;23.262;2023-07-08T05:58:16;7.60;;;6.90;;
9461;SDS011;4769;42.660;23.262;2023-07-08T06:00:42;8.93;;;7.60;;
9461;SDS011;4769;42.660;23.262;2023-07-08T06:03:09;8.45;;;7.55;;
9461;SDS011;4769;42.660;23.262;2023-07-08T06:05:36;8.40;;;7.32;;
9461;SDS011;4769;42.660;23.262;2023-07-08T06:08:02;7.50;;;6.80;;
9461;SDS011;4769;42.660;23.262;2023-07-08T06:10:28;7.82;;;7.18;;
9461;SDS011;4769;42.660;23.262;2023-07-08T06:12:56;9.23;;;7.40;;
9461;SDS011;4769;42.660;23.262;2023-07-08T06:15:22;8.10;;;7.28;;
9461;SDS011;4769;42.660;23.262;2023-07-08T06:17:48;8.18;;;7.47;;
9461;SDS011;4769;42.660;23.262;2023-07-08T06:20:13;7.95;;;7.03;;
9461;SDS011;4769;42.660;23.262;2023-07-08T06:22:39;8.80;;;7.68;;
9461;SDS011;4769;42.660;23.262;2023-07-08T06:25:05;7.95;;;7.15;;
9461;SDS011;4769;42.660;23.262;2023-07-08T06:27:31;7.68;;;6.90;;
9461;SDS011;4769;42.660;23.262;2023-07-08T06:29:59;7.75;;;6.95;;
9461;SDS011;4769;42.660;23.262;2023-07-08T06:32:25;8.10;;;7.30;;
9461;SDS011;4769;42.660;23.262;2023-07-08T06:34:51;10.70;;;7.03;;
9461;SDS011;4769;42.660;23.262;2023-07-08T06:37:16;9.48;;;7.10;;
9461;SDS011;4769;42.660;23.262;2023-07-08T06:39:42;8.00;;;7.30;;
9461;SDS011;4769;42.660;23.262;2023-07-08T06:42:08;7.50;;;6.70;;
9461;SDS011;4769;42.660;23.262;2023-07-08T06:44:33;7.68;;;6.55;;
9461;SDS011;4769;42.660;23.262;2023-07-08T06:47:02;7.63;;;6.82;;
9461;SDS011;4769;42.660;23.262;2023-07-08T06:49:28;7.45;;;6.72;;
9461;SDS011;4769;42.660;23.262;2023-07-08T06:51:53;7.40;;;6.60;;
9461;SDS011;4769;42.660;23.262;2023-07-08T06:54:19;8.52;;;6.60;;
9461;SDS011;4769;42.660;23.262;2023-07-08T06:56:45;11.88;;;6.90;;
9461;SDS011;4769;42.660;23.262;2023-07-08T06:59:10;7.40;;;6.70;;
9461;SDS011;4769;42.660;23.262;2023-07-08T07:01:36;8.57;;;7.47;;
9461;SDS011;4769;42.660;23.262;2023-07-08T07:04:04;8.63;;;7.70;;
9461;SDS011;4769;42.660;23.262;2023-07-08T07:06:30;12.50;;;9.18;;
9461;SDS011;4769;42.660;23.262;2023-07-08T07:08:56;8.07;;;7.28;;
9461;SDS011;4769;42.660;23.262;2023-07-08T07:11:21;7.70;;;6.60;;
9461;SDS011;4769;42.660;23.262;2023-07-08T07:13:47;8.45;;;7.65;;
9461;SDS011;4769;42.660;23.262;2023-07-08T07:16:14;7.43;;;6.72;;
9461;SDS011;4769;42.660;23.262;2023-07-08T07:18:40;8.02;;;7.22;;
9461;SDS011;4769;42.660;23.262;2023-07-08T07:21:08;7.70;;;7.00;;
9461;SDS011;4769;42.660;23.262;2023-07-08T07:23:34;9.68;;;7.45;;
9461;SDS011;4769;42.660;23.262;2023-07-08T07:26:00;7.60;;;6.90;;
9461;SDS011;4769;42.660;23.262;2023-07-08T07:28:25;8.88;;;8.05;;
9461;SDS011;4769;42.660;23.262;2023-07-08T07:30:55;9.18;;;8.20;;
9461;SDS011;4769;42.660;23.262;2023-07-08T07:33:22;10.00;;;9.13;;
9461;SDS011;4769;42.660;23.262;2023-07-08T07:35:48;8.55;;;7.60;;
9461;SDS011;4769;42.660;23.262;2023-07-08T07:38:16;12.48;;;8.05;;
9461;SDS011;4769;42.660;23.262;2023-07-08T07:40:42;9.52;;;8.52;;
9461;SDS011;4769;42.660;23.262;2023-07-08T07:43:08;7.70;;;6.90;;
9461;SDS011;4769;42.660;23.262;2023-07-08T07:45:34;8.07;;;7.30;;
9461;SDS011;4769;42.660;23.262;2023-07-08T07:48:00;7.40;;;6.78;;
9461;SDS011;4769;42.660;23.262;2023-07-08T07:50:25;7.03;;;6.43;;
9461;SDS011;4769;42.660;23.262;2023-07-08T07:52:51;7.68;;;6.97;;
9461;SDS011;4769;42.660;23.262;2023-07-08T07:55:19;8.48;;;6.85;;
9461;SDS011;4769;42.660;23.262;2023-07-08T07:57:45;7.50;;;6.80;;
9461;SDS011;4769;42.660;23.262;2023-07-08T08:00:11;7.00;;;6.40;;
9461;SDS011;4769;42.660;23.262;2023-07-08T08:02:37;7.45;;;6.85;;
9461;SDS011;4769;42.660;23.262;2023-07-08T08:05:03;7.22;;;6.60;;
9461;SDS011;4769;42.660;23.262;2023-07-08T08:07:29;8.50;;;6.45;;
9461;SDS011;4769;42.660;23.262;2023-07-08T08:09:55;7.22;;;6.60;;
9461;SDS011;4769;42.660;23.262;2023-07-08T08:12:23;8.00;;;6.90;;
9461;SDS011;4769;42.660;23.262;2023-07-08T08:14:49;7.80;;;7.00;;
9461;SDS011;4769;42.660;23.262;2023-07-08T08:17:14;7.10;;;6.40;;
9461;SDS011;4769;42.660;23.262;2023-07-08T08:19:40;7.72;;;6.95;;
9461;SDS011;4769;42.660;23.262;2023-07-08T08:22:06;7.28;;;6.68;;
9461;SDS011;4769;42.660;23.262;2023-07-08T08:24:32;7.43;;;6.78;;
9461;SDS011;4769;42.660;23.262;2023-07-08T08:26:58;7.18;;;6.47;;
9461;SDS011;4769;42.660;23.262;2023-07-08T08:29:26;7.32;;;6.63;;
9461;SDS011;4769;42.660;23.262;2023-07-08T08:31:52;7.82;;;6.60;;
9461;SDS011;4769;42.660;23.262;2023-07-08T08:34:18;6.88;;;6.13;;
9461;SDS011;4769;42.660;23.262;2023-07-08T08:36:43;6.60;;;5.97;;
9461;SDS011;4769;42.660;23.262;2023-07-08T08:39:09;7.40;;;6.80;;
9461;SDS011;4769;42.660;23.262;2023-07-08T08:41:37;7.32;;;6.63;;
9461;SDS011;4769;42.660;23.262;2023-07-08T08:44:05;8.40;;;6.60;;
9461;SDS011;4769;42.660;23.262;2023-07-08T08:46:38;9.13;;;6.43;;
9461;SDS011;4769;42.660;23.262;2023-07-08T08:49:13;7.10;;;6.50;;
9461;SDS011;4769;42.660;23.262;2023-07-08T08:51:46;7.35;;;6.63;;
9461;SDS011;4769;42.660;23.262;2023-07-08T08:54:13;7.18;;;6.35;;
9461;SDS011;4769;42.660;23.262;2023-07-08T08:56:39;8.10;;;6.35;;
9461;SDS011;4769;42.660;23.262;2023-07-08T08:59:14;7.40;;;6.20;;
9461;SDS011;4769;42.660;23.262;2023-07-08T09:01:50;7.18;;;6.40;;
9461;SDS011;4769;42.660;23.262;2023-07-08T09:04:19;7.07;;;6.50;;
9461;SDS011;4769;42.660;23.262;2023-07-08T09:06:53;6.90;;;6.20;;
9461;SDS011;4769;42.660;23.262;2023-07-08T09:09:27;6.57;;;5.80;;
9461;SDS011;4769;42.660;23.262;2023-07-08T09:12:00;8.88;;;6.20;;
9461;SDS011;4769;42.660;23.262;2023-07-08T09:14:30;6.43;;;5.93;;
9461;SDS011;4769;42.660;23.262;2023-07-08T09:17:05;6.82;;;6.22;;
9461;SDS011;4769;42.660;23.262;2023-07-08T09:19:40;7.60;;;6.90;;
9461;SDS011;4769;42.660;23.262;2023-07-08T09:22:11;6.80;;;6.20;;
9461;SDS011;4769;42.660;23.262;2023-07-08T09:24:41;7.13;;;6.53;;
9461;SDS011;4769;42.660;23.262;2023-07-08T09:27:09;7.20;;;6.53;;
9461;SDS011;4769;42.660;23.262;2023-07-08T09:29:35;6.20;;;5.68;;
9461;SDS011;4769;42.660;23.262;2023-07-08T09:32:06;6.97;;;6.30;;
9461;SDS011;4769;42.660;23.262;2023-07-08T09:34:41;6.60;;;6.10;;
9461;SDS011;4769;42.660;23.262;2023-07-08T09:37:20;6.38;;;5.88;;
9461;SDS011;4769;42.660;23.262;2023-07-08T09:39:48;6.90;;;6.20;;
9461;SDS011;4769;42.660;23.262;2023-07-08T09:42:13;6.20;;;5.70;;
9461;SDS011;4769;42.660;23.262;2023-07-08T09:44:41;6.97;;;6.28;;
9461;SDS011;4769;42.660;23.262;2023-07-08T09:47:19;5.90;;;5.40;;
9461;SDS011;4769;42.660;23.262;2023-07-08T09:49:47;6.88;;;6.28;;
9461;SDS011;4769;42.660;23.262;2023-07-08T09:52:13;7.07;;;6.03;;
9461;SDS011;4769;42.660;23.262;2023-07-08T09:54:40;7.53;;;6.22;;
9461;SDS011;4769;42.660;23.262;2023-07-08T09:57:09;6.32;;;5.78;;
9461;SDS011;4769;42.660;23.262;2023-07-08T09:59:38;6.10;;;5.60;;
9461;SDS011;4769;42.660;23.262;2023-07-08T10:02:22;6.68;;;5.65;;
9461;SDS011;4769;42.660;23.262;2023-07-08T10:04:52;5.70;;;5.20;;
9461;SDS011;4769;42.660;23.262;2023-07-08T10:07:18;6.45;;;5.80;;
9461;SDS011;4769;42.660;23.262;2023-07-08T10:09:44;5.53;;;5.00;;
9461;SDS011;4769;42.660;23.262;2023-07-08T10:12:13;7.68;;;5.70;;
9461;SDS011;4769;42.660;23.262;2023-07-08T10:14:41;5.70;;;5.18;;
9461;SDS011;4769;42.660;23.262;2023-07-08T10:17:13;5.43;;;4.93;;
9461;SDS011;4769;42.660;23.262;2023-07-08T10:19:43;4.97;;;4.47;;
9461;SDS011;4769;42.660;23.262;2023-07-08T10:22:22;5.22;;;4.82;;
9461;SDS011;4769;42.660;23.262;2023-07-08T10:24:59;5.72;;;5.18;;
9461;SDS011;4769;42.660;23.262;2023-07-08T10:27:35;5.72;;;5.07;;
9461;SDS011;4769;42.660;23.262;2023-07-08T10:30:12;5.97;;;5.43;;
9461;SDS011;4769;42.660;23.262;2023-07-08T10:32:46;6.18;;;5.57;;
9461;SDS011;4769;42.660;23.262;2023-07-08T10:35:23;5.43;;;4.80;;
9461;SDS011;4769;42.660;23.262;2023-07-08T10:37:57;5.45;;;4.95;;
9461;SDS011;4769;42.660;23.262;2023-07-08T10:40:38;5.38;;;4.93;;
9461;SDS011;4769;42.660;23.262;2023-07-08T10:46:18;5.93;;;4.80;;
9461;SDS011;4769;42.660;23.262;2023-07-08T10:49:00;5.05;;;4.55;;
9461;SDS011;4769;42.660;23.262;2023-07-08T10:51:50;5.13;;;4.63;;
9461;SDS011;4769;42.660;23.262;2023-07-08T10:54:29;5.15;;;4.70;;
9461;SDS011;4769;42.660;23.262;2023-07-08T10:57:12;4.72;;;4.32;;
9461;SDS011;4769;42.660;23.262;2023-07-08T10:59:54;5.30;;;4.70;;
9461;SDS011;4769;42.660;23.262;2023-07-08T11:05:32;5.25;;;4.85;;
9461;SDS011;4769;42.660;23.262;2023-07-08T11:08:10;5.13;;;4.65;;
9461;SDS011;4769;42.660;23.262;2023-07-08T11:10:43;5.10;;;4.60;;
9461;SDS011;4769;42.660;23.262;2023-07-08T11:13:16;4.70;;;4.30;;
9461;SDS011;4769;42.660;23.262;2023-07-08T11:15:45;4.57;;;4.18;;
9461;SDS011;4769;42.660;23.262;2023-07-08T11:18:17;5.28;;;4.88;;
9461;SDS011;4769;42.660;23.262;2023-07-08T11:20:49;5.18;;;4.68;;
9461;SDS011;4769;42.660;23.262;2023-07-08T11:23:26;5.88;;;4.80;;
9461;SDS011;4769;42.660;23.262;2023-07-08T11:26:00;5.68;;;5.10;;
9461;SDS011;4769;42.660;23.262;2023-07-08T11:28:32;5.50;;;5.10;;
9461;SDS011;4769;42.660;23.262;2023-07-08T11:30:58;5.10;;;4.60;;
9461;SDS011;4769;42.660;23.262;2023-07-08T11:33:27;5.32;;;4.93;;
9461;SDS011;4769;42.660;23.262;2023-07-08T11:35:55;4.88;;;4.47;;
9461;SDS011;4769;42.660;23.262;2023-07-08T11:38:25;4.88;;;4.53;;
9461;SDS011;4769;42.660;23.262;2023-07-08T11:40:52;5.13;;;4.50;;
9461;SDS011;4769;42.660;23.262;2023-07-08T11:43:20;4.60;;;4.22;;
9461;SDS011;4769;42.660;23.262;2023-07-08T11:45:49;5.60;;;5.00;;
9461;SDS011;4769;42.660;23.262;2023-07-08T11:48:16;5.25;;;4.72;;
9461;SDS011;4769;42.660;23.262;2023-07-08T11:50:44;5.75;;;4.85;;
9461;SDS011;4769;42.660;23.262;2023-07-08T11:53:12;6.00;;;5.40;;
9461;SDS011;4769;42.660;23.262;2023-07-08T11:55:59;5.30;;;4.60;;
9461;SDS011;4769;42.660;23.262;2023-07-08T11:58:27;6.07;;;4.90;;
9461;SDS011;4769;42.660;23.262;2023-07-08T12:00:57;4.90;;;4.47;;
9461;SDS011;4769;42.660;23.262;2023-07-08T12:03:29;8.20;;;5.10;;
9461;SDS011;4769;42.660;23.262;2023-07-08T12:05:59;4.65;;;4.25;;
9461;SDS011;4769;42.660;23.262;2023-07-08T12:08:32;4.25;;;3.92;;
9461;SDS011;4769;42.660;23.262;2023-07-08T12:11:03;6.28;;;5.20;;
9461;SDS011;4769;42.660;23.262;2023-07-08T12:13:36;4.80;;;4.40;;
9461;SDS011;4769;42.660;23.262;2023-07-08T12:16:02;6.05;;;4.60;;
9461;SDS011;4769;42.660;23.262;2023-07-08T12:18:30;5.90;;;4.18;;
9461;SDS011;4769;42.660;23.262;2023-07-08T12:20:59;4.93;;;4.53;;
9461;SDS011;4769;42.660;23.262;2023-07-08T12:23:26;5.15;;;3.95;;
9461;SDS011;4769;42.660;23.262;2023-07-08T12:25:53;4.22;;;3.83;;
9461;SDS011;4769;42.660;23.262;2023-07-08T12:28:23;6.25;;;5.65;;
9461;SDS011;4769;42.660;23.262;2023-07-08T12:30:49;4.80;;;4.40;;
9461;SDS011;4769;42.660;23.262;2023-07-08T12:33:16;5.30;;;4.57;;
9461;SDS011;4769;42.660;23.262;2023-07-08T12:35:44;4.57;;;4.18;;
9461;SDS011;4769;42.660;23.262;2023-07-08T12:38:15;5.63;;;4.10;;
9461;SDS011;4769;42.660;23.262;2023-07-08T12:40:44;4.70;;;4.30;;
9461;SDS011;4769;42.660;23.262;2023-07-08T12:43:10;5.10;;;4.70;;
9461;SDS011;4769;42.660;23.262;2023-07-08T12:45:39;4.57;;;4.18;;
9461;SDS011;4769;42.660;23.262;2023-07-08T12:48:05;4.80;;;4.40;;
9461;SDS011;4769;42.660;23.262;2023-07-08T12:50:31;4.45;;;4.05;;
9461;SDS011;4769;42.660;23.262;2023-07-08T12:52:56;4.65;;;4.25;;
9461;SDS011;4769;42.660;23.262;2023-07-08T12:55:22;4.22;;;3.83;;
9461;SDS011;4769;42.660;23.262;2023-07-08T12:57:50;4.35;;;3.95;;
9461;SDS011;4769;42.660;23.262;2023-07-08T13:00:20;4.45;;;4.05;;
9461;SDS011;4769;42.660;23.262;2023-07-08T13:02:53;4.38;;;3.97;;
9461;SDS011;4769;42.660;23.262;2023-07-08T13:05:23;4.55;;;3.70;;
9461;SDS011;4769;42.660;23.262;2023-07-08T13:07:50;4.80;;;4.38;;
9461;SDS011;4769;42.660;23.262;2023-07-08T13:10:17;4.68;;;3.67;;
9461;SDS011;4769;42.660;23.262;2023-07-08T13:12:45;4.72;;;4.20;;
9461;SDS011;4769;42.660;23.262;2023-07-08T13:15:13;4.15;;;3.83;;
9461;SDS011;4769;42.660;23.262;2023-07-08T13:17:44;4.75;;;3.65;;
9461;SDS011;4769;42.660;23.262;2023-07-08T13:20:15;6.22;;;3.90;;
9461;SDS011;4769;42.660;23.262;2023-07-08T13:22:42;5.70;;;3.53;;
9461;SDS011;4769;42.660;23.262;2023-07-08T13:25:16;3.47;;;3.17;;
9461;SDS011;4769;42.660;23.262;2023-07-08T13:27:53;4.90;;;3.60;;
9461;SDS011;4769;42.660;23.262;2023-07-08T13:30:20;4.65;;;4.03;;
9461;SDS011;4769;42.660;23.262;2023-07-08T13:32:51;3.50;;;3.20;;
9461;SDS011;4769;42.660;23.262;2023-07-08T13:35:24;4.20;;;3.80;;
9461;SDS011;4769;42.660;23.262;2023-07-08T13:37:51;4.63;;;3.95;;
9461;SDS011;4769;42.660;23.262;2023-07-08T13:40:17;3.75;;;3.40;;
9461;SDS011;4769;42.660;23.262;2023-07-08T13:42:46;4.20;;;3.83;;
9461;SDS011;4769;42.660;23.262;2023-07-08T13:45:13;4.28;;;3.70;;
9461;SDS011;4769;42.660;23.262;2023-07-08T13:47:40;6.13;;;3.85;;
9461;SDS011;4769;42.660;23.262;2023-07-08T13:50:07;3.80;;;3.50;;
9461;SDS011;4769;42.660;23.262;2023-07-08T13:52:46;4.13;;;3.58;;
9461;SDS011;4769;42.660;23.262;2023-07-08T13:55:18;4.60;;;3.88;;
9461;SDS011;4769;42.660;23.262;2023-07-08T13:57:45;4.60;;;3.70;;
9461;SDS011;4769;42.660;23.262;2023-07-08T14:00:11;4.18;;;3.75;;
9461;SDS011;4769;42.660;23.262;2023-07-08T14:02:38;6.90;;;3.75;;
9461;SDS011;4769;42.660;23.262;2023-07-08T14:05:08;3.90;;;3.60;;
9461;SDS011;4769;42.660;23.262;2023-07-08T14:07:36;4.10;;;3.70;;
9461;SDS011;4769;42.660;23.262;2023-07-08T14:10:07;4.22;;;3.63;;
9461;SDS011;4769;42.660;23.262;2023-07-08T14:12:36;3.60;;;3.30;;
9461;SDS011;4769;42.660;23.262;2023-07-08T14:15:01;4.47;;;3.90;;
9461;SDS011;4769;42.660;23.262;2023-07-08T14:17:27;4.82;;;3.80;;
9461;SDS011;4769;42.660;23.262;2023-07-08T14:19:53;4.07;;;3.42;;
9461;SDS011;4769;42.660;23.262;2023-07-08T14:22:23;3.95;;;3.65;;
9461;SDS011;4769;42.660;23.262;2023-07-08T14:24:50;4.30;;;3.90;;
9461;SDS011;4769;42.660;23.262;2023-07-08T14:27:19;4.43;;;3.60;;
9461;SDS011;4769;42.660;23.262;2023-07-08T14:29:46;4.07;;;3.33;;
9461;SDS011;4769;42.660;23.262;2023-07-08T14:32:13;4.47;;;3.75;;
9461;SDS011;4769;42.660;23.262;2023-07-08T14:34:43;5.93;;;3.90;;
9461;SDS011;4769;42.660;23.262;2023-07-08T14:37:14;6.00;;;4.18;;
9461;SDS011;4769;42.660;23.262;2023-07-08T14:39:40;6.25;;;3.80;;
9461;SDS011;4769;42.660;23.262;2023-07-08T14:42:07;5.00;;;3.70;;
9461;SDS011;4769;42.660;23.262;2023-07-08T14:44:38;4.22;;;3.80;;
9461;SDS011;4769;42.660;23.262;2023-07-08T14:47:07;4.68;;;3.53;;
9461;SDS011;4769;42.660;23.262;2023-07-08T14:49:34;3.88;;;3.58;;
9461;SDS011;4769;42.660;23.262;2023-07-08T14:52:00;4.15;;;3.78;;
9461;SDS011;4769;42.660;23.262;2023-07-08T14:54:26;4.18;;;3.67;;
9461;SDS011;4769;42.660;23.262;2023-07-08T14:56:52;5.70;;;3.88;;
9461;SDS011;4769;42.660;23.262;2023-07-08T14:59:21;4.45;;;4.05;;
9461;SDS011;4769;42.660;23.262;2023-07-08T15:01:51;4.97;;;4.30;;
9461;SDS011;4769;42.660;23.262;2023-07-08T15:04:18;4.20;;;3.80;;